Nearby METAR Reports

 

KMTN - Baltimore/Martin, Maryland, USA
Distance from station: SSE 8mi, 13km
Updated: Mon, 25-May-2015 6:50pm EDT
Clear
Clear
 Wind from SSE
Wind: SSE 18 mph , 30 km/h, Gust: 24 mph , 39 km/h
Temperature: 79°F , 26°C
Dew Point: 64°F , 18°C
Humidity: 61%
Barometer: 30.21 inHg , 1023 hPa
Clouds: Clear
Visibility: 10 miles , 16 km
2015/05/25 22:50 KMTN 252250Z 16016G21KT 10SM SKC 26/18 A3021
KDMH - Baltimore/Dwntwn, Maryland, USA
Distance from station: SW 12mi, 19km
Updated: Mon, 25-May-2015 6:54pm EDT

 
Temperature: 79°F , 26°C
Dew Point: 61°F , 16°C
Humidity: 54%
Barometer: 30.19 inHg , 1022.4 hPa
2015/05/25 22:54 KDMH 252254Z AUTO 26/16 A3019 RMK AO1 SLP223 T02610156
 
KBWI - Balto/Wash Intl, Maryland, USA
Distance from station: SSW 20mi, 33km
Updated: Mon, 25-May-2015 6:54pm EDT
Partly cloudy
Partly cloudy
 Wind from varies
Wind: varies 5 mph , 7 km/h, Gust: 16 mph , 26 km/h
Temperature: 81°F , 27°C
Heat Index: 81°F , 27°C
Dew Point: 57°F , 14°C
Humidity: 45%
Barometer: 30.18 inHg , 1022 hPa
Clouds: Partly cloudy
Visibility: 10 miles , 16 km
Cloud details: Few Clouds 5500 ft
Partly cloudy 25000 ft
2015/05/25 22:54 KBWI 252254Z VRB04G14KT 10SM FEW055 SCT250 27/14 A3018 RMK AO2 SLP218 T02720144
KDMW - Carroll Cnty, Maryland, USA
Distance from station: WNW 30mi, 48km
Updated: Mon, 25-May-2015 7:10pm EDT
Clear
Clear
 Wind from S
Wind: S 13 mph , 20 km/h, Gust: 18 mph , 30 km/h
Temperature: 82°F , 28°C
Heat Index: 82°F , 28°C
Dew Point: 57°F , 14°C
Humidity: 42%
Barometer: 30.19 inHg , 1022.4 hPa
Clouds: Clear
Visibility: 10 miles , 16 km
2015/05/25 23:10 KDMW 252310Z AUTO 19011G16KT 10SM CLR 28/14 A3019 RMK AO2
 
KNAK - Annapolis/Naval, Maryland, USA
Distance from station: S 30mi, 48km
Updated: Mon, 25-May-2015 6:54pm EDT
Clear
Clear
 Wind from S
Wind: S 16 mph , 26 km/h, Gust: 24 mph , 39 km/h
Temperature: 73°F , 23°C
Dew Point: 61°F , 16°C
Humidity: 65%
Barometer: 30.21 inHg , 1023 hPa
Clouds: Clear
Visibility: 10 miles , 16 km
2015/05/25 22:54 KNAK 252254Z AUTO 17014G21KT 10SM CLR 23/16 A3021 RMK AO2 SLP230 T02330161
KW29 - Stevensville, Maryland, USA
Distance from station: SSE 31mi, 50km
Updated: Mon, 25-May-2015 7:10pm EDT

 Wind from SSE
Wind: SSE 10 mph , 17 km/h, Gust: 21 mph , 33 km/h
Barometer: 30.21 inHg , 1023 hPa
Visibility: 10 miles , 16 km
2015/05/25 23:10 KW29 252310Z AUTO 16009G18KT 10SM A3021 RMK AO1
 
KCGS - College Park, Maryland, USA
Distance from station: SW 38mi, 61km
Updated: Mon, 25-May-2015 7:10pm EDT
Clear
Clear
 Wind from S
Wind: S 5 mph , 7 km/h
Temperature: 82°F , 28°C
Heat Index: 81°F , 27°C
Dew Point: 55°F , 13°C
Humidity: 40%
Barometer: 30.19 inHg , 1022.4 hPa
Clouds: Clear
Visibility: 10 miles , 16 km
2015/05/25 23:10 KCGS 252310Z AUTO 19004KT 10SM CLR 28/13 A3019 RMK AO1
KGAI - Gaithersburg, Maryland, USA
Distance from station: WSW 40mi, 65km
Updated: Mon, 25-May-2015 6:55pm EDT
Clear
Clear
 Wind from S
Wind: S 9 mph , 15 km/h
Temperature: 81°F , 27°C
Heat Index: 81°F , 27°C
Dew Point: 57°F , 14°C
Humidity: 45%
Barometer: 30.23 inHg , 1023.7 hPa
Clouds: Clear
Visibility: 10 miles , 16 km
2015/05/25 22:55 KGAI 252255Z AUTO 19008KT 10SM CLR 27/14 A3023 RMK AO1
 
KTHV - York, Pennsylvania, USA
Distance from station: NNW 40mi, 65km
Updated: Mon, 25-May-2015 6:53pm EDT
Clear
Clear
 Wind from SSW
Wind: SSW 8 mph , 13 km/h, Gust: 18 mph , 30 km/h
Temperature: 81°F , 27°C
Heat Index: 81°F , 27°C
Dew Point: 59°F , 15°C
Humidity: 48%
Barometer: 30.16 inHg , 1021.3 hPa
Clouds: Clear
Visibility: 10 miles , 16 km
2015/05/25 22:53 KTHV 252253Z AUTO 20007G16KT 10SM CLR 27/15 A3016 RMK AO2 SLP213 T02670150
KFDK - Frederick, Maryland, USA
Distance from station: W 47mi, 75km
Updated: Mon, 25-May-2015 6:45pm EDT
Clear
Clear
 Wind from S
Wind: S 12 mph , 19 km/h
Temperature: 82°F , 28°C
Heat Index: 82°F , 28°C
Dew Point: 61°F , 16°C
Humidity: 48%
Barometer: 30.19 inHg , 1022.4 hPa
Clouds: Clear
Visibility: 10 miles , 16 km
2015/05/25 22:45 KFDK 252245Z 19010KT 10SM SKC 28/16 A3019
 
KESN - Easton/Newnam, Maryland, USA
Distance from station: SSE 48mi, 78km
Updated: Mon, 25-May-2015 6:45pm EDT
Partly cloudy
Partly cloudy
 Wind from S
Wind: S 15 mph , 24 km/h
Temperature: 81°F , 27°C
Heat Index: 82°F , 28°C
Dew Point: 63°F , 17°C
Humidity: 54%
Barometer: 30.26 inHg , 1024.7 hPa
Clouds: Partly cloudy
Visibility: 10 miles , 16 km
Cloud details: Partly cloudy 8000 ft
2015/05/25 22:45 KESN 252245Z 19013KT 10SM SCT080 27/17 A3026
KDCA - Washington/Natl, Washington D.c., USA
Distance from station: SW 49mi, 79km
Updated: Mon, 25-May-2015 6:52pm EDT
Mostly cloudy
Mostly cloudy
 Wind from SSW
Wind: SSW 15 mph , 24 km/h, Gust: 21 mph , 33 km/h
Temperature: 82°F , 28°C
Heat Index: 82°F , 28°C
Dew Point: 57°F , 14°C
Humidity: 42%
Barometer: 30.19 inHg , 1022.4 hPa
Clouds: Mostly cloudy
Visibility: 10 miles , 16 km
Cloud details: Few Clouds 6500 ft
Mostly cloudy 25000 ft
2015/05/25 22:52 KDCA 252252Z 20013G18KT 10SM FEW065 BKN250 28/14 A3019 RMK AO2 SLP224 T02830144 $
 
KLNS - Lancaster, Pennsylvania, USA
Distance from station: N 49mi, 79km
Updated: Mon, 25-May-2015 6:53pm EDT
Clear
Clear
 Wind from S
Wind: S 15 mph , 24 km/h, Gust: 22 mph , 35 km/h
Temperature: 79°F , 26°C
Dew Point: 61°F , 16°C
Humidity: 54%
Barometer: 30.16 inHg , 1021.3 hPa
Clouds: Clear
Visibility: 10 miles , 16 km
2015/05/25 22:53 KLNS 252253Z 18013G19KT 10SM CLR 26/16 A3016 RMK AO2 SLP212 T02610156
KILG - Wilmington, Delaware, USA
Distance from station: ENE 50mi, 81km
Updated: Mon, 25-May-2015 6:51pm EDT
Clear
Clear
 Wind from S
Wind: S 14 mph , 22 km/h, Gust: 23 mph , 37 km/h
Temperature: 79°F , 26°C
Dew Point: 61°F , 16°C
Humidity: 54%
Barometer: 30.20 inHg , 1022.7 hPa
Clouds: Clear
Visibility: 10 miles , 16 km
2015/05/25 22:51 KILG 252251Z 19012G20KT 10SM CLR 26/16 A3020 RMK AO2 SLP226 T02610156